Time,TemperatureF,DewpointF,PressureIn,WindDirection,WindDirectionDegrees,WindSpeedMPH,WindSpeedGustMPH,Humidity,HourlyPrecipIn,Conditions,Clouds,dailyrainin,SoftwareType,DateUTC
2013-06-28 00:02:00,85.0,-99.9,-100.00,ESE,118,5.0,5.0,-999,-99.99,,,-99.99,,2013-06-28 05:02:00,
2013-06-28 00:40:00,80.0,-99.9,-100.00,ESE,111,2.0,4.0,-999,-99.99,,,-99.99,,2013-06-28 05:40:00,
2013-06-28 00:53:00,82.0,-99.9,-100.00,East,101,3.0,4.0,-999,-99.99,,,-99.99,,2013-06-28 05:53:00,
2013-06-28 01:02:00,82.0,-99.9,-100.00,East,101,3.0,4.0,-999,-99.99,,,-99.99,,2013-06-28 06:02:00,
2013-06-28 01:22:00,80.0,-99.9,-100.00,ESE,111,2.0,4.0,-999,-99.99,,,-99.99,,2013-06-28 06:22:00,
2013-06-28 01:30:00,76.0,-99.9,-100.00,SE,143,1.0,2.0,-999,-99.99,,,-99.99,,2013-06-28 06:30:00,
2013-06-28 01:34:00,80.0,-99.9,-100.00,ESE,111,2.0,4.0,-999,-99.99,,,-99.99,,2013-06-28 06:34:00,
2013-06-28 01:52:00,78.0,-99.9,-100.00,SE,124,1.0,2.0,-999,-99.99,,,-99.99,,2013-06-28 06:52:00,
2013-06-28 02:01:00,78.0,-99.9,-100.00,SE,124,1.0,2.0,-999,-99.99,,,-99.99,,2013-06-28 07:01:00,
2013-06-28 02:22:00,76.0,-99.9,-100.00,SE,143,1.0,2.0,-999,-99.99,,,-99.99,,2013-06-28 07:22:00,
2013-06-28 04:40:00,70.0,-99.9,-100.00,North,2,1.0,1.0,-999,-99.99,,,-99.99,,2013-06-28 09:40:00,
2013-06-28 09:33:00,77.0,-99.9,-100.00,NE,43,6.0,6.0,-999,-99.99,,,-99.99,,2013-06-28 14:33:00,
2013-06-28 10:00:00,84.0,-99.9,-100.00,ENE,75,1.0,4.0,-999,-99.99,,,-99.99,,2013-06-28 15:00:00,
2013-06-28 10:43:00,85.0,-99.9,-100.00,WSW,238,0.0,4.0,-999,-99.99,,,-99.99,,2013-06-28 15:43:00,
2013-06-28 10:52:00,84.0,-99.9,-100.00,ENE,75,1.0,4.0,-999,-99.99,,,-99.99,,2013-06-28 15:52:00,
2013-06-28 11:10:00,90.0,-99.9,-100.00,NE,35,1.0,3.0,-999,-99.99,,,-99.99,,2013-06-28 16:10:00,
2013-06-28 11:44:00,89.0,-99.9,-100.00,NE,43,2.0,2.0,-999,-99.99,,,-99.99,,2013-06-28 16:44:00,
2013-06-28 11:53:00,90.0,-99.9,-100.00,NE,35,1.0,3.0,-999,-99.99,,,-99.99,,2013-06-28 16:53:00,
2013-06-28 12:02:00,90.0,-99.9,-100.00,NE,35,1.0,3.0,-999,-99.99,,,-99.99,,2013-06-28 17:02:00,
2013-06-28 12:40:00,93.0,-99.9,-100.00,East,99,2.0,3.0,-999,-99.99,,,-99.99,,2013-06-28 17:40:00,
2013-06-28 13:33:00,93.0,-99.9,-100.00,East,99,2.0,3.0,-999,-99.99,,,-99.99,,2013-06-28 18:33:00,
2013-06-28 13:50:00,95.0,-99.9,-100.00,ENE,70,2.0,4.0,-999,-99.99,,,-99.99,,2013-06-28 18:50:00,
2013-06-28 14:11:00,94.0,-99.9,-100.00,SSW,195,0.0,2.0,-999,-99.99,,,-99.99,,2013-06-28 19:11:00,
2013-06-28 14:40:00,98.0,-99.9,-100.00,NNW,331,2.0,5.0,-999,-99.99,,,-99.99,,2013-06-28 19:40:00,
2013-06-28 14:43:00,95.0,-99.9,-100.00,ENE,70,2.0,4.0,-999,-99.99,,,-99.99,,2013-06-28 19:43:00,
2013-06-28 15:22:00,98.0,-99.9,-100.00,NNW,331,2.0,5.0,-999,-99.99,,,-99.99,,2013-06-28 20:22:00,
2013-06-28 15:33:00,98.0,-99.9,-100.00,NNW,331,2.0,5.0,-999,-99.99,,,-99.99,,2013-06-28 20:33:00,
2013-06-28 16:20:00,99.0,-99.9,-100.00,NNW,347,1.0,3.0,-999,-99.99,,,-99.99,,2013-06-28 21:20:00,
2013-06-28 17:01:00,99.0,-99.9,-100.00,NNW,347,1.0,3.0,-999,-99.99,,,-99.99,,2013-06-28 22:01:00,
2013-06-28 17:11:00,99.0,-99.9,-100.00,NNW,347,1.0,3.0,-999,-99.99,,,-99.99,,2013-06-28 22:11:00,
2013-06-28 19:34:00,101.0,-99.9,-100.00,West,268,0.0,2.0,-999,-99.99,,,-99.99,,2013-06-29 00:34:00,
2013-06-28 20:10:00,97.0,-99.9,-100.00,SE,131,2.0,2.0,-999,-99.99,,,-99.99,,2013-06-29 01:10:00,
2013-06-28 20:42:00,97.0,-99.9,-100.00,SE,133,1.0,2.0,-999,-99.99,,,-99.99,,2013-06-29 01:42:00,
2013-06-28 20:52:00,97.0,-99.9,-100.00,SE,131,2.0,2.0,-999,-99.99,,,-99.99,,2013-06-29 01:52:00,
2013-06-28 21:01:00,97.0,-99.9,-100.00,SE,131,2.0,2.0,-999,-99.99,,,-99.99,,2013-06-29 02:01:00,
2013-06-28 21:21:00,97.0,-99.9,-100.00,SSE,167,1.0,2.0,-999,-99.99,,,-99.99,,2013-06-29 02:21:00,
2013-06-28 21:31:00,97.0,-99.9,-100.00,SSE,167,1.0,2.0,-999,-99.99,,,-99.99,,2013-06-29 02:31:00,
2013-06-28 21:41:00,97.0,-99.9,-100.00,SSE,167,1.0,2.0,-999,-99.99,,,-99.99,,2013-06-29 02:41:00,
2013-06-28 21:51:00,93.0,-99.9,-100.00,SSE,164,1.0,2.0,-999,-99.99,,,-99.99,,2013-06-29 02:51:00,
2013-06-28 22:01:00,93.0,-99.9,-100.00,SSE,164,1.0,2.0,-999,-99.99,,,-99.99,,2013-06-29 03:01:00,
2013-06-28 22:11:00,93.0,-99.9,-100.00,SSE,164,1.0,2.0,-999,-99.99,,,-99.99,,2013-06-29 03:11:00,